createdAt,value
2022-12-31T00:01:46.253Z,100.00
2022-12-31T00:04:14.228Z,100.00
2022-12-31T00:06:42.004Z,100.00
2022-12-31T00:09:11.424Z,100.00
2022-12-31T00:11:40.649Z,100.00
2022-12-31T00:14:08.667Z,100.00
2022-12-31T00:16:38.634Z,100.00
2022-12-31T00:19:07.946Z,100.00
2022-12-31T00:21:36.666Z,100.00
2022-12-31T00:24:05.894Z,100.00
2022-12-31T00:26:35.711Z,100.00
2022-12-31T00:29:06.119Z,100.00
2022-12-31T00:31:34.651Z,100.00
2022-12-31T00:34:03.129Z,100.00
2022-12-31T00:36:32.910Z,100.00
2022-12-31T00:39:02.456Z,100.00
2022-12-31T00:41:30.646Z,100.00
2022-12-31T00:43:58.888Z,100.00
2022-12-31T00:46:28.409Z,100.00
2022-12-31T00:48:56.366Z,100.00
2022-12-31T00:51:27.490Z,100.00
2022-12-31T00:53:55.905Z,100.00
2022-12-31T00:56:25.359Z,100.00
2022-12-31T00:58:53.573Z,100.00
2022-12-31T01:01:24.131Z,100.00
2022-12-31T01:03:55.608Z,100.00
2022-12-31T01:06:24.078Z,100.00
2022-12-31T01:08:53.187Z,100.00
2022-12-31T01:11:22.506Z,100.00
2022-12-31T01:13:52.844Z,100.00
2022-12-31T01:16:22.496Z,100.00
2022-12-31T01:18:50.745Z,100.00
2022-12-31T01:21:20.516Z,100.00
2022-12-31T01:23:48.896Z,100.00
2022-12-31T01:26:18.028Z,100.00
2022-12-31T01:28:45.830Z,100.00
2022-12-31T01:31:16.361Z,100.00
2022-12-31T01:33:45.289Z,100.00
2022-12-31T01:36:21.873Z,100.00
2022-12-31T01:38:57.327Z,100.00
2022-12-31T01:41:27.217Z,100.00
2022-12-31T01:43:57.267Z,100.00
2022-12-31T01:46:29.318Z,100.00
2022-12-31T01:49:01.493Z,100.00
2022-12-31T01:51:32.228Z,100.00
2022-12-31T01:54:03.177Z,100.00
2022-12-31T01:56:31.200Z,100.00
2022-12-31T01:58:59.870Z,100.00
2022-12-31T02:01:30.489Z,100.00
2022-12-31T02:03:59.057Z,100.00
2022-12-31T02:06:33.302Z,100.00
2022-12-31T02:09:02.745Z,100.00
2022-12-31T02:11:33.027Z,100.00
2022-12-31T02:14:05.077Z,100.00
2022-12-31T02:16:41.381Z,100.00
2022-12-31T02:19:32.124Z,100.00
2022-12-31T02:22:05.846Z,100.00
2022-12-31T02:24:49.506Z,100.00
2022-12-31T02:27:26.138Z,100.00
2022-12-31T02:30:07.722Z,100.00
2022-12-31T02:33:07.801Z,100.00
2022-12-31T02:35:44.885Z,100.00
2022-12-31T02:38:19.083Z,100.00
2022-12-31T02:40:48.084Z,100.00
2022-12-31T02:43:15.884Z,100.00
2022-12-31T02:45:48.749Z,100.00
2022-12-31T02:48:33.045Z,100.00
2022-12-31T02:51:13.332Z,100.00
2022-12-31T02:53:57.109Z,100.00
2022-12-31T02:56:31.176Z,100.00
2022-12-31T02:59:22.381Z,100.00
2022-12-31T03:02:13.799Z,100.00
2022-12-31T03:04:42.601Z,100.00
2022-12-31T03:07:13.862Z,100.00
2022-12-31T03:09:41.918Z,100.00
2022-12-31T03:12:29.366Z,100.00
2022-12-31T03:14:57.625Z,100.00
2022-12-31T03:17:26.785Z,100.00
2022-12-31T03:20:12.146Z,100.00
2022-12-31T03:22:43.498Z,100.00
2022-12-31T03:25:32.545Z,100.00
2022-12-31T03:28:01.254Z,100.00
2022-12-31T03:30:29.608Z,100.00
2022-12-31T03:32:59.208Z,100.00
2022-12-31T03:35:29.513Z,100.00
2022-12-31T03:37:57.817Z,100.00
2022-12-31T03:40:27.600Z,100.00
2022-12-31T03:42:55.522Z,100.00
2022-12-31T03:45:23.332Z,100.00
2022-12-31T03:47:51.363Z,100.00
2022-12-31T03:50:21.442Z,100.00
2022-12-31T03:52:49.217Z,100.00
2022-12-31T03:55:16.980Z,100.00
2022-12-31T03:57:44.873Z,100.00
2022-12-31T04:00:15.785Z,100.00
2022-12-31T04:02:43.647Z,100.00
2022-12-31T04:05:11.874Z,100.00
2022-12-31T04:07:41.335Z,100.00
2022-12-31T04:10:11.501Z,100.00
2022-12-31T04:12:40.112Z,100.00
2022-12-31T04:15:09.531Z,100.00
2022-12-31T04:17:37.337Z,100.00
2022-12-31T04:20:05.774Z,100.00
2022-12-31T04:22:33.641Z,100.00
2022-12-31T04:25:03.135Z,100.00
2022-12-31T04:27:31.312Z,100.00
2022-12-31T04:29:59.006Z,100.00
2022-12-31T04:32:26.865Z,100.00
2022-12-31T04:34:54.671Z,100.00
2022-12-31T04:37:22.726Z,100.00
2022-12-31T04:39:50.425Z,100.00
2022-12-31T04:42:19.505Z,100.00
2022-12-31T04:44:47.306Z,100.00
2022-12-31T04:47:18.737Z,100.00
2022-12-31T04:49:51.174Z,100.00
2022-12-31T04:52:18.970Z,100.00
2022-12-31T04:54:46.694Z,100.00
2022-12-31T04:57:14.611Z,100.00
2022-12-31T04:59:43.860Z,100.00
2022-12-31T05:02:11.764Z,100.00
2022-12-31T05:04:39.700Z,100.00
2022-12-31T05:07:07.414Z,100.00
2022-12-31T05:09:35.132Z,100.00
2022-12-31T05:12:03.010Z,100.00
2022-12-31T05:14:30.749Z,100.00
2022-12-31T05:17:01.158Z,100.00
2022-12-31T05:19:28.869Z,100.00
2022-12-31T05:22:10.501Z,100.00
2022-12-31T05:24:38.414Z,100.00
2022-12-31T05:27:06.227Z,100.00
2022-12-31T05:29:34.018Z,100.00
2022-12-31T05:32:03.291Z,100.00
2022-12-31T05:34:31.043Z,100.00
2022-12-31T05:36:58.754Z,100.00
2022-12-31T05:39:26.562Z,100.00
2022-12-31T05:41:54.297Z,100.00
2022-12-31T05:44:22.001Z,100.00
2022-12-31T05:46:49.864Z,100.00
2022-12-31T05:49:18.918Z,100.00
2022-12-31T05:51:46.662Z,100.00
2022-12-31T05:54:14.483Z,100.00
2022-12-31T05:56:42.193Z,100.00
2022-12-31T05:59:09.982Z,100.00
2022-12-31T06:01:37.864Z,100.00
2022-12-31T06:04:06.047Z,100.00
2022-12-31T06:06:35.418Z,100.00
2022-12-31T06:09:03.331Z,100.00
2022-12-31T06:11:31.283Z,100.00
2022-12-31T06:13:59.307Z,100.00
2022-12-31T06:16:28.100Z,100.00
2022-12-31T06:18:56.317Z,100.00
2022-12-31T06:21:24.205Z,100.00
2022-12-31T06:23:53.437Z,100.00
2022-12-31T06:26:21.447Z,100.00
2022-12-31T06:28:49.230Z,100.00
2022-12-31T06:31:17.177Z,100.00
2022-12-31T06:33:46.909Z,100.00
2022-12-31T06:36:16.900Z,100.00
2022-12-31T06:38:45.267Z,100.00
2022-12-31T06:41:16.738Z,100.00
2022-12-31T06:43:44.711Z,100.00
2022-12-31T06:46:14.558Z,100.00
2022-12-31T06:48:44.698Z,100.00
2022-12-31T06:51:17.302Z,100.00
2022-12-31T06:53:45.922Z,100.00
2022-12-31T06:56:18.569Z,100.00
2022-12-31T06:58:47.236Z,100.00
2022-12-31T07:01:32.883Z,100.00
2022-12-31T07:04:14.150Z,100.00
2022-12-31T07:06:49.879Z,100.00
2022-12-31T07:09:27.271Z,100.00
2022-12-31T07:12:04.944Z,100.00
2022-12-31T07:14:37.111Z,100.00
2022-12-31T07:17:21.673Z,100.00
2022-12-31T07:19:58.008Z,100.00
2022-12-31T07:22:26.619Z,100.00
2022-12-31T07:24:55.138Z,100.00
2022-12-31T07:27:37.733Z,100.00
2022-12-31T07:30:11.077Z,100.00
2022-12-31T07:32:57.537Z,100.00
2022-12-31T07:35:35.447Z,100.00
2022-12-31T07:38:09.015Z,100.00
2022-12-31T07:40:51.003Z,100.00
2022-12-31T07:43:35.581Z,100.00
2022-12-31T07:46:12.799Z,100.00
2022-12-31T07:48:41.114Z,100.00
2022-12-31T07:51:11.757Z,100.00
2022-12-31T07:53:39.546Z,100.00
2022-12-31T07:56:09.952Z,100.00
2022-12-31T07:58:48.976Z,100.00
2022-12-31T08:01:20.776Z,100.00
2022-12-31T08:03:56.403Z,100.00
2022-12-31T08:06:34.839Z,100.00
2022-12-31T08:09:08.197Z,100.00
2022-12-31T08:11:43.237Z,100.00
2022-12-31T08:14:14.650Z,100.00
2022-12-31T08:16:43.087Z,100.00
2022-12-31T08:19:23.573Z,100.00
2022-12-31T08:21:55.462Z,100.00
2022-12-31T08:24:30.031Z,100.00
2022-12-31T08:27:06.373Z,100.00
2022-12-31T08:29:43.208Z,100.00
2022-12-31T08:32:16.586Z,100.00
2022-12-31T08:34:55.776Z,100.00
2022-12-31T08:37:32.103Z,100.00
2022-12-31T08:40:14.129Z,100.00
2022-12-31T08:42:50.467Z,100.00
2022-12-31T08:45:29.216Z,100.00
2022-12-31T08:48:02.471Z,100.00
2022-12-31T08:50:31.115Z,100.00
2022-12-31T08:52:59.694Z,100.00
2022-12-31T08:55:28.029Z,100.00
2022-12-31T08:58:09.394Z,100.00
2022-12-31T09:00:39.768Z,100.00
2022-12-31T09:03:22.222Z,100.00
2022-12-31T09:05:58.706Z,100.00
2022-12-31T09:08:34.134Z,100.00
2022-12-31T09:11:08.759Z,100.00
2022-12-31T09:13:49.342Z,100.00
2022-12-31T09:16:26.123Z,100.00
2022-12-31T09:18:54.078Z,100.00
2022-12-31T09:21:22.160Z,100.00
2022-12-31T09:23:50.303Z,100.00
2022-12-31T09:26:36.297Z,100.00
2022-12-31T09:29:13.827Z,100.00
2022-12-31T09:31:52.543Z,100.00
2022-12-31T09:34:26.015Z,100.00
2022-12-31T09:36:58.409Z,100.00
2022-12-31T09:39:38.296Z,100.00
2022-12-31T09:42:39.055Z,100.00
2022-12-31T09:45:43.563Z,100.00
2022-12-31T09:48:50.855Z,100.00
2022-12-31T09:51:33.024Z,100.00
2022-12-31T09:54:26.520Z,100.00
2022-12-31T09:57:27.839Z,100.00
2022-12-31T10:00:01.762Z,100.00
2022-12-31T10:02:53.934Z,100.00
2022-12-31T10:05:49.432Z,100.00
2022-12-31T10:08:30.283Z,100.00
2022-12-31T10:11:00.622Z,100.00
2022-12-31T10:13:44.191Z,100.00
2022-12-31T10:16:25.766Z,100.00
2022-12-31T10:19:19.258Z,100.00
2022-12-31T10:22:03.294Z,100.00
2022-12-31T10:24:48.066Z,100.00
2022-12-31T10:27:29.619Z,100.00
2022-12-31T10:30:03.471Z,100.00
2022-12-31T10:32:43.261Z,100.00
2022-12-31T10:35:27.922Z,100.00
2022-12-31T10:38:13.780Z,100.00
2022-12-31T10:41:11.153Z,100.00
2022-12-31T10:44:25.532Z,100.00
2022-12-31T10:47:26.440Z,100.00
2022-12-31T10:50:13.582Z,100.00
2022-12-31T10:53:32.902Z,100.00
2022-12-31T10:56:38.917Z,100.00
2022-12-31T10:59:34.725Z,100.00
2022-12-31T11:02:21.517Z,100.00
2022-12-31T11:05:22.516Z,100.00
2022-12-31T11:08:07.475Z,100.00
2022-12-31T11:10:58.690Z,100.00
2022-12-31T11:13:52.107Z,100.00
2022-12-31T11:16:46.964Z,100.00
2022-12-31T11:19:22.657Z,100.00
2022-12-31T11:22:21.375Z,100.00
2022-12-31T11:25:14.182Z,100.00
2022-12-31T11:27:55.675Z,100.00
2022-12-31T11:30:34.034Z,100.00
2022-12-31T11:33:20.305Z,100.00
2022-12-31T11:36:10.302Z,100.00
2022-12-31T11:38:43.979Z,100.00
2022-12-31T11:41:17.542Z,100.00
2022-12-31T11:43:55.784Z,100.00
2022-12-31T11:46:41.442Z,100.00
2022-12-31T11:49:20.697Z,100.00
2022-12-31T11:52:18.246Z,100.00
2022-12-31T11:55:04.520Z,100.00
2022-12-31T11:57:35.916Z,100.00
2022-12-31T12:00:15.167Z,100.00
2022-12-31T12:02:46.834Z,100.00
2022-12-31T12:05:17.746Z,100.00
2022-12-31T12:07:45.915Z,100.00
2022-12-31T12:10:24.154Z,100.00
2022-12-31T12:12:53.313Z,100.00
2022-12-31T12:15:24.865Z,100.00
2022-12-31T12:17:57.627Z,100.00
2022-12-31T12:20:31.412Z,100.00
2022-12-31T12:23:02.384Z,100.00
2022-12-31T12:25:38.917Z,100.00
2022-12-31T12:28:19.745Z,100.00
2022-12-31T12:30:53.806Z,100.00
2022-12-31T12:33:23.577Z,100.00
2022-12-31T12:35:51.819Z,100.00
2022-12-31T12:38:21.925Z,100.00
2022-12-31T12:40:58.445Z,100.00
2022-12-31T12:43:28.233Z,100.00
2022-12-31T12:46:00.253Z,100.00
2022-12-31T12:48:36.459Z,100.00
2022-12-31T12:51:21.940Z,100.00
2022-12-31T12:53:58.872Z,100.00
2022-12-31T12:56:36.644Z,100.00
2022-12-31T12:59:27.780Z,100.00
2022-12-31T13:02:05.531Z,100.00
2022-12-31T13:04:52.573Z,100.00
2022-12-31T13:07:32.973Z,100.00
2022-12-31T13:10:24.157Z,100.00
2022-12-31T13:15:55.118Z,100.00
2022-12-31T13:18:37.038Z,100.00
2022-12-31T13:21:19.768Z,100.00
2022-12-31T13:23:53.718Z,100.00
2022-12-31T13:26:28.968Z,100.00
2022-12-31T13:28:59.624Z,100.00
2022-12-31T13:31:31.570Z,100.00
2022-12-31T13:34:05.523Z,100.00
2022-12-31T13:36:38.930Z,100.00
2022-12-31T13:39:13.499Z,100.00
2022-12-31T13:41:47.763Z,100.00
2022-12-31T13:44:20.346Z,100.00
2022-12-31T13:46:52.493Z,100.00
2022-12-31T13:49:26.152Z,100.00
2022-12-31T13:52:02.621Z,100.00
2022-12-31T13:54:39.267Z,100.00
2022-12-31T13:57:16.415Z,100.00
2022-12-31T13:59:49.538Z,100.00
2022-12-31T14:02:33.294Z,100.00
2022-12-31T14:05:07.642Z,100.00
2022-12-31T14:07:45.817Z,100.00
2022-12-31T14:10:14.912Z,100.00
2022-12-31T14:12:54.074Z,100.00
2022-12-31T14:15:26.302Z,100.00
2022-12-31T14:18:04.264Z,100.00
2022-12-31T14:20:41.140Z,100.00
2022-12-31T14:23:17.947Z,100.00
2022-12-31T14:25:52.030Z,100.00
2022-12-31T14:28:26.979Z,100.00
2022-12-31T14:31:01.180Z,100.00
2022-12-31T14:33:52.750Z,100.00
2022-12-31T14:36:35.982Z,100.00
2022-12-31T14:39:26.166Z,100.00
2022-12-31T14:42:05.231Z,100.00
2022-12-31T14:44:47.470Z,100.00
2022-12-31T14:47:28.059Z,100.00
2022-12-31T14:50:05.274Z,100.00
2022-12-31T14:52:34.660Z,100.00
2022-12-31T14:55:22.818Z,100.00
2022-12-31T15:00:41.022Z,100.00
2022-12-31T15:03:26.067Z,100.00
2022-12-31T15:05:58.533Z,100.00
2022-12-31T15:08:48.051Z,100.00
2022-12-31T15:11:48.527Z,100.00
2022-12-31T15:14:37.851Z,100.00
2022-12-31T15:17:17.214Z,100.00
2022-12-31T15:20:16.981Z,100.00
2022-12-31T15:22:47.608Z,100.00
2022-12-31T15:25:25.346Z,100.00
2022-12-31T15:27:55.282Z,100.00
2022-12-31T15:30:39.869Z,100.00
2022-12-31T15:33:10.906Z,100.00
2022-12-31T15:35:47.994Z,100.00
2022-12-31T15:38:31.574Z,100.00
2022-12-31T15:41:00.135Z,100.00
2022-12-31T15:43:40.880Z,100.00
2022-12-31T15:46:17.354Z,100.00
2022-12-31T15:48:52.133Z,100.00
2022-12-31T15:51:23.699Z,100.00
2022-12-31T15:53:54.418Z,100.00
2022-12-31T15:56:31.238Z,100.00
2022-12-31T15:59:03.622Z,100.00
2022-12-31T16:01:33.878Z,100.00
2022-12-31T16:04:05.725Z,100.00
2022-12-31T16:06:37.780Z,100.00
2022-12-31T16:09:09.027Z,100.00
2022-12-31T16:11:38.534Z,100.00
2022-12-31T16:14:07.813Z,100.00
2022-12-31T16:16:36.064Z,100.00
2022-12-31T16:19:03.977Z,99.47
2022-12-31T16:21:34.389Z,100.00
2022-12-31T16:24:03.238Z,100.00
2022-12-31T16:26:35.064Z,99.39
2022-12-31T16:29:04.613Z,98.97
2022-12-31T16:31:34.158Z,99.47
2022-12-31T16:34:07.144Z,98.29
2022-12-31T16:36:35.465Z,99.27
2022-12-31T16:39:25.487Z,99.20
2022-12-31T16:42:00.418Z,99.48
2022-12-31T16:44:30.141Z,98.92
2022-12-31T16:47:01.579Z,98.57
2022-12-31T16:49:32.571Z,97.55
2022-12-31T16:52:03.786Z,96.86
2022-12-31T16:54:35.330Z,96.80
2022-12-31T16:57:04.701Z,96.74
2022-12-31T16:59:36.213Z,96.99
2022-12-31T17:02:12.461Z,96.65
2022-12-31T17:04:46.043Z,96.62
2022-12-31T17:07:39.997Z,94.93
2022-12-31T17:10:19.406Z,95.65
2022-12-31T17:15:42.258Z,95.09
2022-12-31T17:18:18.549Z,95.43
2022-12-31T17:20:47.010Z,94.93
2022-12-31T17:23:24.677Z,95.04
2022-12-31T17:25:59.918Z,95.11
2022-12-31T17:28:33.213Z,94.64
2022-12-31T17:31:22.094Z,95.08
2022-12-31T17:33:54.941Z,95.14
2022-12-31T17:36:24.568Z,94.87
2022-12-31T17:38:52.491Z,94.23
2022-12-31T17:41:26.679Z,94.43
2022-12-31T17:43:58.685Z,94.78
2022-12-31T17:46:27.511Z,95.15
2022-12-31T17:49:03.564Z,94.63
2022-12-31T17:51:31.451Z,93.51
2022-12-31T17:54:01.233Z,93.57
2022-12-31T17:56:29.010Z,93.68
2022-12-31T17:58:57.099Z,94.15
2022-12-31T18:01:25.212Z,93.31
2022-12-31T18:03:53.097Z,94.01
2022-12-31T18:06:22.337Z,94.16
2022-12-31T18:08:50.059Z,94.32
2022-12-31T18:11:20.639Z,93.58
2022-12-31T18:13:48.901Z,94.52
2022-12-31T18:16:17.123Z,93.39
2022-12-31T18:18:45.378Z,92.92
2022-12-31T18:21:17.828Z,93.03
2022-12-31T18:23:48.804Z,92.90
2022-12-31T18:26:18.671Z,93.66
2022-12-31T18:28:46.982Z,93.26
2022-12-31T18:31:17.696Z,92.77
2022-12-31T18:33:46.910Z,92.83
2022-12-31T18:36:16.874Z,92.99
2022-12-31T18:38:46.038Z,92.98
2022-12-31T18:41:18.486Z,93.79
2022-12-31T18:43:46.656Z,93.49
2022-12-31T18:46:16.324Z,94.26
2022-12-31T18:48:44.430Z,93.71
2022-12-31T18:51:15.159Z,93.24
2022-12-31T18:53:43.099Z,92.59
2022-12-31T18:56:14.352Z,93.67
2022-12-31T18:58:43.145Z,93.50
2022-12-31T19:01:26.111Z,93.65
2022-12-31T19:03:54.605Z,94.75
2022-12-31T19:06:22.519Z,95.85
2022-12-31T19:08:50.339Z,95.51
2022-12-31T19:11:19.861Z,95.08
2022-12-31T19:13:47.586Z,96.60
2022-12-31T19:16:17.958Z,98.98
2022-12-31T19:18:46.246Z,98.08
2022-12-31T19:21:19.923Z,100.00
2022-12-31T19:23:48.588Z,99.64
2022-12-31T19:26:18.117Z,98.08
2022-12-31T19:28:48.354Z,97.84
2022-12-31T19:31:17.374Z,96.95
2022-12-31T19:33:45.938Z,97.99
2022-12-31T19:36:16.045Z,98.35
2022-12-31T19:38:44.148Z,97.86
2022-12-31T19:41:16.289Z,98.65
2022-12-31T19:43:44.085Z,96.95
2022-12-31T19:46:15.622Z,97.47
2022-12-31T19:48:44.133Z,97.39
2022-12-31T19:51:13.821Z,96.36
2022-12-31T19:53:41.743Z,95.87
2022-12-31T19:56:13.717Z,94.76
2022-12-31T19:58:42.000Z,94.01
2022-12-31T20:01:17.318Z,95.52
2022-12-31T20:03:46.547Z,93.16
2022-12-31T20:06:14.619Z,92.74
2022-12-31T20:08:44.274Z,91.02
2022-12-31T20:11:14.651Z,90.80
2022-12-31T20:13:43.246Z,92.13
2022-12-31T20:16:14.028Z,91.36
2022-12-31T20:18:43.313Z,91.45
2022-12-31T20:21:14.905Z,90.84
2022-12-31T20:23:42.719Z,91.50
2022-12-31T20:26:11.008Z,92.20
2022-12-31T20:28:39.164Z,91.74
2022-12-31T20:31:07.917Z,89.36
2022-12-31T20:33:35.830Z,90.51
2022-12-31T20:36:04.534Z,89.70
2022-12-31T20:38:34.138Z,89.41
2022-12-31T20:41:05.778Z,89.36
2022-12-31T20:43:34.304Z,87.03
2022-12-31T20:46:12.600Z,89.32
2022-12-31T20:48:43.135Z,90.38
2022-12-31T20:51:11.067Z,89.94
2022-12-31T20:53:40.213Z,89.39
2022-12-31T20:56:09.578Z,88.09
2022-12-31T20:58:37.578Z,90.24
2022-12-31T21:01:08.047Z,91.61
2022-12-31T21:04:04.452Z,91.94
2022-12-31T21:06:24.619Z,93.20
2022-12-31T21:08:55.116Z,93.93
2022-12-31T21:11:40.019Z,92.43
2022-12-31T21:14:08.356Z,92.08
2022-12-31T21:16:36.302Z,92.33
2022-12-31T21:19:04.501Z,92.65
2022-12-31T21:21:32.441Z,94.67
2022-12-31T21:24:01.560Z,94.31
2022-12-31T21:26:30.553Z,94.34
2022-12-31T21:28:58.538Z,95.60
2022-12-31T21:31:26.347Z,95.40
2022-12-31T21:33:54.165Z,96.19
2022-12-31T21:36:22.133Z,94.89
2022-12-31T21:38:49.924Z,94.72
2022-12-31T21:41:36.317Z,95.41
2022-12-31T21:44:04.794Z,96.98
2022-12-31T21:46:32.839Z,96.39
2022-12-31T21:49:01.779Z,96.31
2022-12-31T21:51:30.261Z,97.72
2022-12-31T21:53:58.382Z,100.00
2022-12-31T21:56:26.588Z,100.00
2022-12-31T21:59:15.641Z,100.00
2022-12-31T22:02:01.105Z,100.00
2022-12-31T22:07:17.723Z,100.00
2022-12-31T22:09:45.649Z,100.00
2022-12-31T22:12:14.726Z,100.00
2022-12-31T22:15:15.449Z,100.00
2022-12-31T22:17:30.325Z,100.00
2022-12-31T22:20:25.859Z,100.00
2022-12-31T22:22:45.870Z,100.00
2022-12-31T22:25:13.721Z,100.00
2022-12-31T22:27:53.071Z,100.00
2022-12-31T22:30:30.963Z,100.00
2022-12-31T22:32:59.020Z,100.00
2022-12-31T22:35:26.908Z,100.00
2022-12-31T22:37:58.481Z,100.00
2022-12-31T22:40:29.367Z,100.00
2022-12-31T22:42:58.595Z,100.00
2022-12-31T22:45:26.346Z,100.00
2022-12-31T22:47:54.197Z,100.00
2022-12-31T22:50:22.165Z,100.00
2022-12-31T22:52:49.865Z,100.00
2022-12-31T22:55:17.827Z,100.00
2022-12-31T22:57:45.738Z,100.00
2022-12-31T23:00:15.802Z,100.00
2022-12-31T23:02:43.660Z,100.00
2022-12-31T23:05:16.160Z,100.00
2022-12-31T23:07:44.376Z,100.00
2022-12-31T23:10:29.780Z,100.00
2022-12-31T23:12:57.512Z,100.00
2022-12-31T23:15:44.200Z,100.00
2022-12-31T23:18:29.442Z,100.00
2022-12-31T23:21:14.598Z,100.00
2022-12-31T23:23:42.352Z,100.00
2022-12-31T23:26:10.202Z,100.00
2022-12-31T23:28:37.913Z,100.00
2022-12-31T23:31:08.377Z,100.00
2022-12-31T23:33:36.053Z,100.00
2022-12-31T23:36:05.014Z,100.00
2022-12-31T23:38:32.719Z,100.00
2022-12-31T23:41:01.377Z,100.00
2022-12-31T23:43:29.425Z,100.00
2022-12-31T23:45:57.187Z,100.00
2022-12-31T23:48:26.380Z,100.00
2022-12-31T23:50:54.495Z,100.00
2022-12-31T23:53:22.902Z,100.00
2022-12-31T23:55:50.955Z,100.00
2022-12-31T23:58:18.785Z,100.00
